Main page
METAR-TAF:

METAR-TAF

Airports :

Hamid Karzai International Airport

Kabul, Afghanistan

latitude: 34-38N, longitude: 069-12E, elevation: 1789 m

Current weather observation

The report was made 35 minutes ago, at 18:50 UTC
Calm wind
Temperature 9°C
Humidity 40%
Pressure 1020 hPa
Visibility 10 km or more
no clouds below 1500 m and no cumulonimbus

METAR: OAKB 171850Z 00000KT CAVOK 09/M04 Q1020 NOSIG RMK A3013 BLU BLU

Time: 23:55 (19:25 UTC)

Forecast

The report was made 2 hours and 20 minutes ago, at 17:05 UTC
Forecast valid from 17 at 18 UTC to 18 at 18 UTC
Wind 2 kt from variable directions
Visibility 10 km or more
no clouds below 1500 m and no cumulonimbus
Probability 30%
from 18 at 00 UTC to 18 at 04 UTC
Visibility: 4000 m
smoke
Becoming
from 18 at 08 UTC to 18 at 10 UTC
Wind 12 kt from the East
Scattered clouds at a height of 8000 ft

TAF: OAKB 171705Z 1718/1818 VRB02KT CAVOK PROB30 1800/1804 4000 FU BECMG 1808/1810 08012KT SCT080

Weather observations and forecasts of more than 4000 airports (METAR and TAF reports).

The available stations are represented by yellow and red dots on the map.

Hover mouse over dot to see the name of the station.

Then click to see weather observations and forecasts.

To change the map : click on the green buttons with a black cross to zoom in, on the green button with a dash to zoom out, or on the green arrows for adjacent maps.


METAR-TAF: